METAR Data
IDs: Format: Raw Decoded Include TAF

Data at: 0121 UTC 06 Dec 2019

METAR for:KJYO (Leesburg/Executive A, VA, US)
Text:KJYO 060115Z AUTO 13003KT 10SM CLR 01/M03 A3014 RMK AO2
Temperature: 1.0°C ( 34°F)
Dewpoint: -3.0°C ( 27°F) [RH = 75%]
Pressure (altimeter):30.14 inches Hg (1020.7 mb)
Winds:from the SE (130 degrees) at 3 MPH (3 knots; 1.5 m/s)
Visibility:10 or more sm (16+ km)
Ceiling:at least 12,000 feet AGL
Clouds:sky clear below 12,000 feet AGL
QC Flag:automated observation with no human augmentation